Data for 12/02/2010

Time Sea-Level Adjusted Pressure Absolute Pressure Temperature Relative Humidity Dew Point   
(mb) (inHg) (mb) (inHg) (C) (F) (%) (C) (F)
00:05 1018 30.06 847 25.01 -1.6 29.1 78 -5 23
00:10 1018 30.06 847 25.01 -1.7 29 78 -5.1 22.8
00:15 1018 30.06 847 25.01 -1.4 29.5 77 -4.9 23.1
00:20 1018 30.06 847 25.01 -1 30.3 75 -4.8 23.4
00:25 1018 30.06 847 25.01 -0.9 30.4 75 -4.7 23.5
00:30 1018 30.06 847 25.01 -0.7 30.7 76 -4.5 23.9
00:35 1018 30.06 847 25.01 -0.9 30.3 77 -4.5 23.8
00:40 1018 30.06 847 25.01 -1.3 29.7 78 -4.6 23.7
00:45 1018 30.06 847 25.01 -1.3 29.7 79 -4.5 23.9
00:50 1018 30.06 847 25.01 -1.5 29.3 81 -4.3 24.3
00:55 1018 30.06 847 25.01 -1.7 28.9 81 -4.5 23.8
01:00 1018 30.06 847 25.01 -1.9 28.7 81 -4.8 23.4
01:05 1018 30.06 847 25.01 -1.8 28.8 80 -4.8 23.3
01:10 1018 30.06 847 25.01 -1.8 28.8 79 -4.9 23.2
01:15 1018 30.06 847 25.01 -1.7 29 79 -4.9 23.1
01:20 1018 30.06 847 25.01 -1.7 29 78 -5 23
01:25 1018 30.06 847 25.01 -1.4 29.4 76 -5 22.9
01:30 1018 30.06 847 25.01 -1.3 29.7 76 -4.9 23.2
01:35 1018 30.06 847 25.01 -1.2 29.8 76 -4.9 23.2
01:40 1018 30.06 847 25.01 -1.2 29.8 75 -5.1 22.8
01:45 1018 30.06 847 25.01 -0.9 30.3 73 -5.2 22.6
01:50 1018 30.06 847 25.01 -0.9 30.4 72 -5.3 22.5
01:55 1018 30.06 847 25.01 -0.9 30.3 73 -5.3 22.5
02:00 1018 30.06 847 25.01 -0.9 30.3 73 -5.2 22.7
02:05 1018 30.06 847 25.01 -1 30.2 74 -5.1 22.8
02:10 1018 30.06 847 25.01 -1.1 30 77 -4.6 23.7
02:15 1018 30.06 847 25.01 -1 30.2 74 -5.1 22.8
02:20 1018 30.06 847 25.01 -0.8 30.6 74 -4.8 23.4
02:25 1018 30.06 847 25.01 -0.9 30.3 75 -4.9 23.2
02:30 1018 30.06 847 25.01 -0.9 30.4 74 -5 23
02:35 1018 30.06 847 25.01 -0.7 30.7 74 -4.8 23.3
02:40 1018 30.06 847 25.01 -0.8 30.6 74 -4.9 23.1
02:45 1018 30.06 847 25.01 -0.8 30.5 74 -4.9 23.2
02:50 1018 30.06 847 25.01 -0.8 30.6 75 -4.7 23.6
02:55 1018 30.06 847 25.01 -1.3 29.7 77 -4.8 23.4
03:00 1018 30.06 847 25.01 -1.6 29.1 78 -4.9 23.2
03:05 1018 30.06 847 25.01 -1.6 29.1 78 -5 23
03:10 1018 30.06 847 25.01 -1.3 29.6 76 -5 23
03:15 1018 30.06 847 25.01 -1.4 29.6 77 -4.9 23.1
03:20 1018 30.06 847 25.01 -1.7 28.9 81 -4.7 23.6
03:25 1018 30.06 847 25.01 -1.4 29.5 77 -4.9 23.1
03:30 1018 30.06 847 25.01 -1.4 29.5 79 -4.6 23.6
03:35 1018 30.06 847 25.01 -2.1 28.3 81 -4.8 23.3
03:40 1018 30.06 848 25.04 -2.4 27.7 82 -5 23
03:45 1019 30.09 848 25.04 -1.9 28.5 77 -5.5 22.1
03:50 1018 30.06 848 25.04 -1.1 30 74 -5.1 22.8
03:55 1018 30.06 848 25.04 -0.9 30.4 74 -4.9 23.2
04:00 1018 30.06 848 25.04 -0.9 30.4 75 -4.7 23.5
04:05 1018 30.06 848 25.04 -1.1 30 77 -4.7 23.5
04:10 1018 30.06 848 25.04 -1.6 29.2 79 -4.7 23.5
04:15 1018 30.06 848 25.04 -2.1 28.3 79 -5.2 22.7
04:20 1018 30.06 848 25.04 -1.8 28.7 77 -5.4 22.3
04:25 1018 30.06 847 25.01 -1.6 29.1 77 -5.2 22.6
04:30 1018 30.06 847 25.01 -1.5 29.3 77 -5 22.9
04:35 1018 30.06 847 25.01 -1.6 29.1 78 -5 23
04:40 1018 30.06 847 25.01 -1.5 29.2 77 -5.1 22.8
04:45 1018 30.06 847 25.01 -1.3 29.6 76 -5 23
04:50 1018 30.06 847 25.01 -1.4 29.6 77 -4.9 23.2
04:55 1018 30.06 847 25.01 -1.4 29.4 76 -5.1 22.8
05:00 1018 30.06 847 25.01 -1.3 29.7 75 -5.1 22.8
05:05 1018 30.06 847 25.01 -1.1 30 75 -5.1 22.9
05:10 1018 30.06 847 25.01 -1.1 30 75 -5 23
05:15 1018 30.06 847 25.01 -1 30.2 74 -5.1 22.7
05:20 1018 30.06 847 25.01 -0.7 30.7 72 -5.1 22.9
05:25 1018 30.06 847 25.01 -0.6 31 71 -5.2 22.7
05:30 1018 30.06 847 25.01 -0.5 31.2 70 -5.3 22.5
05:35 1017 30.03 847 25.01 -0.4 31.3 69 -5.5 22.2
05:40 1017 30.03 847 25.01 -0.2 31.7 68 -5.4 22.2
05:45 1017 30.03 847 25.01 -0.1 31.7 68 -5.4 22.3
05:50 1017 30.03 847 25.01 -0.1 31.9 67 -5.4 22.3
05:55 1017 30.03 847 25.01 0 32.1 67 -5.4 22.2
06:00 1017 30.03 847 25.01 0.4 32.7 65 -5.4 22.3
06:05 1017 30.03 847 25.01 0.5 32.9 65 -5.3 22.4
06:10 1018 30.06 847 25.01 0.6 33.1 64 -5.3 22.4
06:15 1017 30.03 847 25.01 0.5 32.9 65 -5.3 22.5
06:20 1017 30.03 847 25.01 0.7 33.3 63 -5.5 22.2
06:25 1017 30.03 847 25.01 0.9 33.6 64 -5.2 22.6
06:30 1017 30.03 847 25.01 0.9 33.7 63 -5.3 22.5
06:35 1017 30.03 846 24.98 0.9 33.7 63 -5.3 22.5
06:40 1017 30.03 846 24.98 0.8 33.5 65 -5 23
06:45 1017 30.03 846 24.98 0.4 32.7 67 -5 23
06:50 1017 30.03 846 24.98 0.2 32.3 68 -5.1 22.8
06:55 1017 30.03 846 24.98 0 32 70 -4.8 23.3
07:00 1017 30.03 846 24.98 0.1 32.3 68 -5 23
07:05 1017 30.03 846 24.98 0.6 33 67 -4.8 23.4
07:10 1017 30.03 846 24.98 0.4 32.8 69 -4.7 23.6
07:15 1017 30.03 846 24.98 0.3 32.5 69 -4.7 23.5
07:20 1017 30.03 846 24.98 0.4 32.8 67 -5 23
07:25 1017 30.03 846 24.98 0.9 33.6 66 -4.8 23.3
07:30 1017 30.03 846 24.98 0.7 33.2 67 -4.8 23.4
07:35 1017 30.03 846 24.98 0.5 32.9 68 -4.8 23.3
07:40 1017 30.03 846 24.98 0.4 32.8 68 -4.8 23.4
07:45 1017 30.03 846 24.98 0.6 33.1 65 -5.2 22.7
07:50 1017 30.03 846 24.98 1.1 34 64 -4.9 23.2
07:55 1017 30.03 846 24.98 1.4 34.5 63 -4.9 23.2
08:00 1017 30.03 846 24.98 1.5 34.7 63 -4.8 23.3
08:05 1016 30 846 24.98 1.4 34.5 63 -4.9 23.3
08:10 1016 30 846 24.98 1.4 34.6 62 -5 23
08:15 1016 30 846 24.98 1.5 34.6 63 -4.8 23.4
08:20 1016 30 846 24.98 1.2 34.2 64 -4.9 23.2
08:25 1016 30 845 24.95 1.1 34 63 -5.2 22.6
08:30 1016 30 845 24.95 1.2 34.2 64 -4.9 23.2
08:35 1016 30 845 24.95 1.1 34 64 -5 23
08:40 1016 30 846 24.98 1.2 34.1 64 -4.8 23.3
08:45 1016 30 846 24.98 1.2 34.2 64 -4.9 23.1
08:50 1016 30 846 24.98 1.5 34.8 63 -4.8 23.3
08:55 1016 30 845 24.95 1.6 34.8 63 -4.7 23.6
09:00 1016 30 845 24.95 1.6 34.9 64 -4.4 24.1
09:05 1016 30 846 24.98 1.8 35.2 63 -4.6 23.6
09:10 1016 30 846 24.98 1.9 35.4 64 -4.2 24.4
09:15 1016 30 846 24.98 2 35.6 63 -4.3 24.2
09:20 1017 30.03 846 24.98 2 35.6 64 -4 24.8
09:25 1017 30.03 846 24.98 1.9 35.3 67 -3.7 25.4
09:30 1017 30.03 846 24.98 1.8 35.2 67 -3.6 25.5
09:35 1017 30.03 846 24.98 1.6 34.9 69 -3.4 25.9
09:40 1017 30.03 846 24.98 1 33.9 74 -3.1 26.4
09:45 1017 30.03 846 24.98 0.5 32.8 72 -4 24.9
09:50 1017 30.03 846 24.98 0.3 32.5 71 -4.4 24.1
09:55 1017 30.03 846 24.98 0.4 32.7 70 -4.4 24.1
10:00 1017 30.03 846 24.98 0.4 32.6 70 -4.4 24.1
10:05 1017 30.03 846 24.98 0.1 32.2 71 -4.5 23.9
10:10 1017 30.03 846 24.98 -0 32 72 -4.5 23.9
10:15 1017 30.03 846 24.98 -0 32 72 -4.5 23.9
10:20 1017 30.03 846 24.98 0.1 32.2 70 -4.8 23.4
10:25 1017 30.03 846 24.98 -0.1 31.9 71 -4.6 23.6
10:30 1017 30.03 846 24.98 -0.5 31.2 74 -4.6 23.7
10:35 1016 30 846 24.98 -0.6 30.9 74 -4.7 23.6
10:40 1017 30.03 846 24.98 -0.2 31.6 73 -4.6 23.8
10:45 1017 30.03 846 24.98 0.2 32.3 70 -4.6 23.7
10:50 1017 30.03 846 24.98 0.4 32.8 70 -4.5 23.9
10:55 1017 30.03 846 24.98 0.5 32.9 71 -4.2 24.4
11:00 1016 30 846 24.98 0.4 32.7 71 -4.2 24.5
11:05 1016 30 846 24.98 0.8 33.4 70 -4.2 24.5
11:10 1016 30 846 24.98 0.9 33.6 70 -3.9 24.9
11:15 1016 30 845 24.95 0.3 32.5 74 -3.9 25
11:20 1016 30 845 24.95 0 32.1 72 -4.5 23.9
11:25 1016 30 845 24.95 0.2 32.4 71 -4.3 24.2
11:30 1016 30 845 24.95 0.5 32.9 70 -4.4 24.1
11:35 1016 30 845 24.95 0.6 33.2 69 -4.5 24
11:40 1016 30 845 24.95 1.1 33.9 66 -4.6 23.7
11:45 1015 29.97 845 24.95 1.3 34.3 67 -4.3 24.3
11:50 1015 29.97 845 24.95 1.5 34.7 64 -4.5 23.9
11:55 1015 29.97 845 24.95 1.6 34.9 65 -4.3 24.2
12:00 1015 29.97 845 24.95 1.8 35.3 63 -4.5 24
12:05 1015 29.97 845 24.95 1.9 35.4 64 -4.1 24.6
12:10 1015 29.97 844 24.92 2 35.6 63 -4.3 24.3
12:15 1015 29.97 844 24.92 2.4 36.3 61 -4.3 24.3
12:20 1015 29.97 844 24.92 2.4 36.3 63 -4 24.8
12:25 1015 29.97 844 24.92 2.5 36.6 61 -4.2 24.4
12:30 1015 29.97 844 24.92 2.7 36.9 62 -3.8 25.1
12:35 1015 29.97 844 24.92 3.5 38.3 57 -4.2 24.5
12:40 1015 29.97 844 24.92 3.1 37.7 61 -3.7 25.3
12:45 1015 29.97 844 24.92 2.5 36.5 62 -4.1 24.6
12:50 1015 29.97 844 24.92 2.6 36.6 63 -3.9 25
12:55 1015 29.97 844 24.92 3 37.3 62 -3.7 25.4
13:00 1015 29.97 844 24.92 2.9 37.3 63 -3.5 25.7
13:05 1015 29.97 844 24.92 2.6 36.7 63 -3.8 25.2
13:10 1015 29.97 844 24.92 2.3 36.2 64 -3.8 25.2
13:15 1015 29.97 844 24.92 2.3 36.2 65 -3.6 25.5
13:20 1015 29.97 844 24.92 2.1 35.9 65 -3.7 25.3
13:25 1014 29.94 844 24.92 2 35.7 68 -3.3 26.1
13:30 1014 29.94 844 24.92 2 35.6 69 -3.1 26.4
13:35 1014 29.94 844 24.92 1.9 35.4 70 -3 26.7
13:40 1014 29.94 844 24.92 1.7 35.1 70 -3.2 26.2
13:45 1014 29.94 844 24.92 1.4 34.5 70 -3.5 25.7
13:50 1014 29.94 843 24.89 1.5 34.6 71 -3.3 26
13:55 1014 29.94 843 24.89 1.8 35.2 69 -3.3 26
14:00 1014 29.94 843 24.89 1.5 34.7 72 -3.1 26.5
14:05 1014 29.94 843 24.89 1.2 34.1 73 -3.2 26.3
14:10 1014 29.94 843 24.89 1.5 34.8 71 -3.2 26.2
14:15 1014 29.94 843 24.89 1.5 34.8 71 -3.2 26.2
14:20 1014 29.94 843 24.89 1.5 34.7 70 -3.4 25.9
14:25 1014 29.94 843 24.89 1.5 34.8 70 -3.3 26.1
14:30 1014 29.94 843 24.89 1.6 34.8 70 -3.3 26.1
14:35 1014 29.94 843 24.89 1.5 34.7 70 -3.3 26
14:40 1014 29.94 843 24.89 1.2 34.2 72 -3.3 26.1
14:45 1013 29.91 843 24.89 1.1 34.1 72 -3.4 25.8
14:50 1013 29.91 842 24.86 1 33.8 73 -3.4 26
14:55 1013 29.91 842 24.86 1 33.7 74 -3.2 26.2
15:00 1013 29.91 842 24.86 1 33.8 75 -2.9 26.8
15:05 1013 29.91 842 24.86 0.8 33.5 76 -3 26.6
15:10 1013 29.91 842 24.86 0.8 33.5 75 -3 26.5
15:15 1013 29.91 842 24.86 0.9 33.6 75 -3.1 26.3
15:20 1013 29.91 842 24.86 1 33.8 76 -2.8 26.9
15:25 1013 29.91 842 24.86 1.1 34 74 -3 26.6
15:30 1013 29.91 842 24.86 1 33.8 76 -2.7 27.1
15:35 1013 29.91 842 24.86 1 33.7 75 -3 26.7
15:40 1013 29.91 842 24.86 0.8 33.5 76 -2.9 26.7
15:45 1013 29.91 842 24.86 0.7 33.3 77 -2.9 26.8
15:50 1013 29.91 842 24.86 0.8 33.4 77 -2.8 27
15:55 1013 29.91 842 24.86 0.7 33.3 78 -2.8 27
16:00 1013 29.91 842 24.86 0.6 33.1 75 -3.3 26
16:05 1013 29.91 842 24.86 0.6 33.2 76 -3.1 26.4
16:10 1012 29.88 842 24.86 0.7 33.3 76 -3 26.5
16:15 1012 29.88 842 24.86 0.7 33.3 77 -2.9 26.8
16:20 1013 29.91 842 24.86 0.9 33.6 77 -2.8 27
16:25 1013 29.91 842 24.86 1 33.8 77 -2.7 27.2
16:30 1013 29.91 842 24.86 1.1 34 76 -2.6 27.3
16:35 1013 29.91 842 24.86 1.2 34.1 76 -2.5 27.4
16:40 1013 29.91 842 24.86 1.2 34.2 77 -2.4 27.8
16:45 1013 29.91 842 24.86 1.3 34.3 76 -2.5 27.5
16:50 1013 29.91 842 24.86 1.3 34.3 77 -2.3 27.8
16:55 1013 29.91 842 24.86 1.1 34 78 -2.4 27.7
17:00 1013 29.91 842 24.86 1.1 33.9 79 -2.2 28.1
17:05 1013 29.91 842 24.86 1 33.7 81 -1.9 28.6
17:10 1013 29.91 842 24.86 0.9 33.6 83 -1.6 29
17:15 1013 29.91 842 24.86 0.7 33.2 84 -1.7 29
17:20 1013 29.91 842 24.86 0.4 32.8 86 -1.6 29.1
17:25 1013 29.91 842 24.86 0.2 32.4 88 -1.6 29.1
17:30 1012 29.88 842 24.86 -0 31.9 89 -1.6 29.2
17:35 1012 29.88 842 24.86 -0.2 31.7 91 -1.5 29.3
17:40 1013 29.91 842 24.86 -0.2 31.6 91 -1.5 29.3
17:45 1013 29.91 842 24.86 -0.3 31.4 90 -1.7 29
17:50 1013 29.91 842 24.86 -0.4 31.3 91 -1.7 28.9
17:55 1012 29.88 842 24.86 -0.4 31.3 91 -1.7 28.9
18:00 1012 29.88 842 24.86 -0.4 31.3 90 -1.8 28.7
18:05 1012 29.88 842 24.86 -0.4 31.3 90 -1.8 28.8
18:10 1012 29.88 842 24.86 -0.2 31.6 90 -1.7 28.9
18:15 1012 29.88 842 24.86 -0.2 31.6 90 -1.7 29
18:20 1012 29.88 841 24.83 -0.3 31.5 90 -1.7 29
18:25 1012 29.88 841 24.83 -0.4 31.3 91 -1.7 29
18:30 1012 29.88 841 24.83 -0.4 31.2 92 -1.6 29.1
18:35 1012 29.88 841 24.83 -0.5 31.1 92 -1.6 29.1
18:40 1012 29.88 841 24.83 -0.5 31 92 -1.6 29
18:45 1011 29.85 841 24.83 -0.6 31 92 -1.7 28.9
18:50 1011 29.85 841 24.83 -0.5 31 92 -1.7 28.9
18:55 1011 29.85 841 24.83 -0.5 31 92 -1.6 29
19:00 1011 29.85 840 24.81 -0.5 31.1 92 -1.6 29.1
19:05 1011 29.85 840 24.81 -0.4 31.2 92 -1.6 29.1
19:10 1011 29.85 840 24.81 -0.4 31.3 91 -1.6 29.1
19:15 1011 29.85 840 24.81 -0.4 31.3 91 -1.7 29
19:20 1011 29.85 840 24.81 -0.3 31.5 90 -1.7 28.9
19:25 1011 29.85 840 24.81 -0.1 31.9 89 -1.7 29
19:30 1011 29.85 840 24.81 -0 32 89 -1.6 29.1
19:35 1011 29.85 840 24.81 -0.2 31.7 90 -1.6 29.1
19:40 1011 29.85 840 24.81 -0.1 31.8 90 -1.5 29.2
19:45 1011 29.85 840 24.81 -0.2 31.7 90 -1.5 29.2
19:50 1011 29.85 840 24.81 -0.2 31.6 91 -1.6 29.2
19:55 1011 29.85 840 24.81 -0.2 31.6 91 -1.5 29.3
20:00 1011 29.85 840 24.81 -0.2 31.7 91 -1.4 29.5
20:05 1011 29.85 840 24.81 0.1 32.2 91 -1.3 29.7
20:10 1011 29.85 840 24.81 0.2 32.3 90 -1.2 29.8
20:15 1011 29.85 840 24.81 0.2 32.4 90 -1.3 29.7
20:20 1011 29.85 840 24.81 0.2 32.4 90 -1.3 29.7
20:25 1011 29.85 840 24.81 0.3 32.5 89 -1.3 29.7
20:30 1011 29.85 840 24.81 0.2 32.3 90 -1.3 29.6
20:35 1011 29.85 840 24.81 0 32 90 -1.4 29.5
20:40 1011 29.85 840 24.81 -0 31.9 90 -1.4 29.4
20:45 1011 29.85 840 24.81 -0.1 31.9 91 -1.5 29.4
20:50 1011 29.85 840 24.81 -0.1 31.7 91 -1.5 29.3
20:55 1011 29.85 840 24.81 -0.3 31.4 91 -1.6 29.2
21:00 1011 29.85 840 24.81 -0.4 31.2 92 -1.6 29.1
21:05 1010 29.83 840 24.81 -0.6 31 93 -1.6 29.1
21:10 1011 29.85 840 24.81 -0.7 30.8 94 -1.6 29.1
21:15 1011 29.85 840 24.81 -0.6 31 94 -1.5 29.4
21:20 1011 29.85 840 24.81 -0.5 31.2 93 -1.4 29.4
21:25 1011 29.85 840 24.81 -0.4 31.2 93 -1.5 29.4
21:30 1011 29.85 840 24.81 -0.4 31.2 93 -1.5 29.3
21:35 1010 29.83 840 24.81 -0.4 31.2 93 -1.5 29.3
21:40 1010 29.83 840 24.81 -0.4 31.2 93 -1.5 29.3
21:45 1011 29.85 840 24.81 -0.5 31.1 93 -1.5 29.2
21:50 1010 29.83 840 24.81 -0.6 30.9 93 -1.7 29
21:55 1010 29.83 840 24.81 -0.7 30.8 93 -1.6 29.1
22:00 1011 29.85 840 24.81 -0.8 30.6 94 -1.7 29
22:05 1011 29.85 840 24.81 -0.8 30.5 94 -1.7 29
22:10 1011 29.85 840 24.81 -0.8 30.6 94 -1.6 29.1
22:15 1011 29.85 840 24.81 -0.7 30.8 95 -1.5 29.4
22:20 1011 29.85 840 24.81 -0.5 31.1 93 -1.4 29.4
22:25 1011 29.85 840 24.81 -0.4 31.2 93 -1.5 29.4
22:30 1011 29.85 840 24.81 -0.4 31.2 93 -1.5 29.3
22:35 1011 29.85 840 24.81 -0.5 31.1 93 -1.5 29.3
22:40 1011 29.85 840 24.81 -0.6 30.9 93 -1.6 29.2
22:45 1011 29.85 840 24.81 -0.8 30.6 93 -1.7 28.9
22:50 1011 29.85 840 24.81 -1.1 29.9 95 -1.9 28.7
22:55 1011 29.85 840 24.81 -1.2 29.8 96 -1.9 28.6
23:00 1011 29.85 840 24.81 -1.2 29.8 96 -1.8 28.7
23:05 1011 29.85 840 24.81 -1.3 29.7 96 -1.8 28.7
23:10 1011 29.85 840 24.81 -1.2 29.8 96 -1.8 28.8
23:15 1011 29.85 840 24.81 -1.2 29.9 96 -1.7 29
23:20 1011 29.85 840 24.81 -1.2 29.8 96 -1.7 28.9
23:25 1011 29.85 840 24.81 -1.3 29.6 96 -1.8 28.7
23:30 1011 29.85 840 24.81 -1.4 29.5 96 -1.9 28.6
23:35 1011 29.85 840 24.81 -1.4 29.4 97 -1.9 28.6
23:40 1011 29.85 840 24.81 -1.4 29.6 97 -1.8 28.8
23:45 1011 29.85 840 24.81 -1.4 29.5 97 -1.9 28.6
23:50 1011 29.85 840 24.81 -1.5 29.3 97 -1.9 28.5
23:55 1011 29.85 840 24.81 -1.5 29.3 97 -1.9 28.6
24:00 1011 29.85 840 24.81 -1.5 29.4 97 -1.9 28.6